createdAt,value
2023-03-22T00:02:43.645Z,10.00
2023-03-22T00:06:49.143Z,10.00
2023-03-22T00:10:54.614Z,9.90
2023-03-22T00:15:00.886Z,9.90
2023-03-22T00:19:06.529Z,9.90
2023-03-22T00:23:12.607Z,9.80
2023-03-22T00:27:18.287Z,9.80
2023-03-22T00:31:23.876Z,9.70
2023-03-22T00:35:29.798Z,9.60
2023-03-22T00:39:35.351Z,9.60
2023-03-22T00:43:41.544Z,9.60
2023-03-22T00:47:47.072Z,9.50
2023-03-22T00:51:52.765Z,9.50
2023-03-22T00:55:58.900Z,9.40
2023-03-22T01:00:13.898Z,9.40
2023-03-22T01:04:26.007Z,9.40
2023-03-22T01:08:33.496Z,9.30
2023-03-22T01:12:39.348Z,9.30
2023-03-22T01:16:45.405Z,9.30
2023-03-22T01:20:52.336Z,9.30
2023-03-22T01:25:00.408Z,9.30
2023-03-22T01:29:06.438Z,9.20
2023-03-22T01:33:12.115Z,9.20
2023-03-22T01:37:17.821Z,9.20
2023-03-22T01:41:24.299Z,9.20
2023-03-22T01:45:51.534Z,9.10
2023-03-22T01:49:57.229Z,9.10
2023-03-22T01:54:08.726Z,9.10
2023-03-22T01:58:18.380Z,9.00
2023-03-22T02:02:24.831Z,9.00
2023-03-22T02:06:32.671Z,8.90
2023-03-22T02:10:39.474Z,8.90
2023-03-22T02:15:20.052Z,8.90
2023-03-22T02:20:08.160Z,8.90
2023-03-22T02:25:00.147Z,8.90
2023-03-22T02:29:34.518Z,8.90
2023-03-22T02:34:28.683Z,8.90
2023-03-22T02:39:04.665Z,8.90
2023-03-22T02:43:46.293Z,8.90
2023-03-22T02:48:19.213Z,8.90
2023-03-22T02:52:40.444Z,8.90
2023-03-22T02:57:05.758Z,8.90
2023-03-22T03:01:32.998Z,8.90
2023-03-22T03:05:51.462Z,8.90
2023-03-22T03:09:57.331Z,8.90
2023-03-22T03:14:03.264Z,9.00
2023-03-22T03:18:14.436Z,9.00
2023-03-22T03:22:53.344Z,9.00
2023-03-22T03:27:23.080Z,9.00
2023-03-22T03:31:33.517Z,9.00
2023-03-22T03:35:48.500Z,9.10
2023-03-22T03:40:09.578Z,9.00
2023-03-22T03:44:16.701Z,9.00
2023-03-22T03:48:28.009Z,9.00
2023-03-22T03:52:33.574Z,9.00
2023-03-22T03:56:39.028Z,9.00
2023-03-22T04:00:46.981Z,9.10
2023-03-22T04:04:52.454Z,9.10
2023-03-22T04:08:59.460Z,9.10
2023-03-22T04:13:04.956Z,9.10
2023-03-22T04:17:10.541Z,9.10
2023-03-22T04:21:16.610Z,9.20
2023-03-22T04:25:22.846Z,9.10
2023-03-22T04:29:32.223Z,9.20
2023-03-22T04:33:39.464Z,9.20
2023-03-22T04:37:45.753Z,9.20
2023-03-22T04:41:51.354Z,9.20
2023-03-22T04:45:58.363Z,9.20
2023-03-22T04:50:04.918Z,9.30
2023-03-22T04:54:10.334Z,9.30
2023-03-22T04:58:16.466Z,9.30
2023-03-22T05:02:22.093Z,9.40
2023-03-22T05:06:27.736Z,9.40
2023-03-22T05:10:34.623Z,9.40
2023-03-22T05:14:40.129Z,9.40
2023-03-22T05:18:45.807Z,9.50
2023-03-22T05:22:57.180Z,9.50
2023-03-22T05:27:03.903Z,9.50
2023-03-22T05:31:11.164Z,9.50
2023-03-22T05:35:16.704Z,9.50
2023-03-22T05:39:23.790Z,9.50
2023-03-22T05:43:29.375Z,9.50
2023-03-22T05:47:34.986Z,9.50
2023-03-22T05:51:42.578Z,9.50
2023-03-22T05:55:48.245Z,9.50
2023-03-22T05:59:54.094Z,9.50
2023-03-22T06:03:59.605Z,9.50
2023-03-22T06:08:05.267Z,9.50
2023-03-22T06:12:11.520Z,9.60
2023-03-22T06:16:17.665Z,9.60
2023-03-22T06:20:23.595Z,9.70
2023-03-22T06:24:29.209Z,9.70
2023-03-22T06:28:34.774Z,9.70
2023-03-22T06:32:40.302Z,9.80
2023-03-22T06:36:45.932Z,9.80
2023-03-22T06:40:51.420Z,9.90
2023-03-22T06:44:57.756Z,9.90
2023-03-22T06:49:03.437Z,10.00
2023-03-22T06:53:09.191Z,10.10
2023-03-22T06:57:14.794Z,10.20
2023-03-22T07:01:24.284Z,10.20
2023-03-22T07:05:30.336Z,10.30
2023-03-22T07:09:35.890Z,10.40
2023-03-22T07:13:41.494Z,10.40
2023-03-22T07:17:47.006Z,10.50
2023-03-22T07:21:52.534Z,10.50
2023-03-22T07:25:59.514Z,10.60
2023-03-22T07:30:08.978Z,10.70
2023-03-22T07:34:15.136Z,10.70
2023-03-22T07:38:20.677Z,10.80
2023-03-22T07:42:26.269Z,10.80
2023-03-22T07:46:31.993Z,10.90
2023-03-22T07:50:39.360Z,10.90
2023-03-22T07:54:45.989Z,10.90
2023-03-22T07:58:51.536Z,10.90
2023-03-22T08:02:57.136Z,11.00
2023-03-22T08:07:02.705Z,11.00
2023-03-22T08:11:08.545Z,11.00
2023-03-22T08:15:14.185Z,11.00
2023-03-22T08:19:19.631Z,11.10
2023-03-22T08:23:40.381Z,11.20
2023-03-22T08:27:47.160Z,11.20
2023-03-22T08:31:52.745Z,11.30
2023-03-22T08:36:24.689Z,11.30
2023-03-22T08:40:30.405Z,11.40
2023-03-22T08:44:36.758Z,11.40
2023-03-22T08:48:42.305Z,11.50
2023-03-22T08:52:47.749Z,11.50
2023-03-22T08:56:53.776Z,11.60
2023-03-22T09:00:59.353Z,11.70
2023-03-22T09:05:06.818Z,11.80
2023-03-22T09:09:13.021Z,11.90
2023-03-22T09:13:19.159Z,12.10
2023-03-22T09:17:24.641Z,12.20
2023-03-22T09:21:30.652Z,12.40
2023-03-22T09:25:36.921Z,12.50
2023-03-22T09:29:42.469Z,12.60
2023-03-22T09:33:48.069Z,12.70
2023-03-22T09:37:54.669Z,12.80
2023-03-22T09:42:04.669Z,12.80
2023-03-22T09:46:24.969Z,12.90
2023-03-22T09:50:32.993Z,13.00
2023-03-22T09:54:42.464Z,13.00
2023-03-22T09:59:40.080Z,13.10
2023-03-22T10:04:10.171Z,13.20
2023-03-22T10:08:46.347Z,13.30
2023-03-22T10:13:08.250Z,13.50
2023-03-22T10:17:19.057Z,13.60
2023-03-22T10:21:26.489Z,13.80
2023-03-22T10:25:40.724Z,13.90
2023-03-22T10:30:20.757Z,14.00
2023-03-22T10:34:33.791Z,14.20
2023-03-22T10:38:50.495Z,14.30
2023-03-22T10:43:34.851Z,14.50
2023-03-22T10:47:58.372Z,14.60
2023-03-22T10:52:39.423Z,14.70
2023-03-22T10:56:49.793Z,14.70
2023-03-22T11:01:06.538Z,14.80
2023-03-22T11:05:30.330Z,14.90
2023-03-22T11:09:35.866Z,14.90
2023-03-22T11:13:41.483Z,15.00
2023-03-22T11:17:47.166Z,15.10
2023-03-22T11:21:54.914Z,15.10
2023-03-22T11:26:14.155Z,15.10
2023-03-22T11:30:27.496Z,15.10
2023-03-22T11:34:33.143Z,15.20
2023-03-22T11:38:41.862Z,15.30
2023-03-22T11:42:53.441Z,15.30
2023-03-22T11:47:01.491Z,15.40
2023-03-22T11:51:12.619Z,15.40
2023-03-22T11:55:18.779Z,15.40
2023-03-22T11:59:30.338Z,15.50
2023-03-22T12:03:42.594Z,15.40
2023-03-22T12:08:00.291Z,15.40
2023-03-22T12:12:14.120Z,15.40
2023-03-22T12:16:26.857Z,15.60
2023-03-22T12:20:58.571Z,15.70
2023-03-22T12:25:11.506Z,15.70
2023-03-22T12:29:19.141Z,15.80
2023-03-22T12:33:31.178Z,15.70
2023-03-22T12:37:40.196Z,15.70
2023-03-22T12:41:49.608Z,15.80
2023-03-22T12:45:59.606Z,15.80
2023-03-22T12:50:16.450Z,15.80
2023-03-22T12:54:25.898Z,15.80
2023-03-22T12:58:31.417Z,15.90
2023-03-22T13:02:37.689Z,15.90
2023-03-22T13:06:46.027Z,15.90
2023-03-22T13:11:03.216Z,15.90
2023-03-22T13:15:42.261Z,15.80
2023-03-22T13:20:27.077Z,15.70
2023-03-22T13:24:33.294Z,15.70
2023-03-22T13:28:39.515Z,15.60
2023-03-22T13:33:03.875Z,15.50
2023-03-22T13:37:25.357Z,15.50
2023-03-22T13:41:34.920Z,15.40
2023-03-22T13:46:20.695Z,15.20
2023-03-22T13:50:31.588Z,15.10
2023-03-22T13:54:43.593Z,15.00
2023-03-22T13:58:53.132Z,14.90
2023-03-22T14:03:13.900Z,14.80
2023-03-22T14:07:40.597Z,14.70
2023-03-22T14:12:03.825Z,14.70
2023-03-22T14:16:40.890Z,14.60
2023-03-22T14:20:55.768Z,14.40
